sensor_id;sensor_type;location;lat;lon;timestamp;P1;durP1;ratioP1;P2;durP2;ratioP2
52534;SDS011;38443;53.164;5.802;2023-05-20T00:03:50;18.55;;;4.93;;
52534;SDS011;38443;53.164;5.802;2023-05-20T00:06:16;10.38;;;5.07;;
52534;SDS011;38443;53.164;5.802;2023-05-20T00:08:41;11.07;;;4.70;;
52534;SDS011;38443;53.164;5.802;2023-05-20T00:11:06;10.25;;;5.25;;
52534;SDS011;38443;53.164;5.802;2023-05-20T00:13:32;11.18;;;5.38;;
52534;SDS011;38443;53.164;5.802;2023-05-20T00:15:59;11.82;;;5.47;;
52534;SDS011;38443;53.164;5.802;2023-05-20T00:20:50;11.23;;;5.10;;
52534;SDS011;38443;53.164;5.802;2023-05-20T00:23:17;10.68;;;5.38;;
52534;SDS011;38443;53.164;5.802;2023-05-20T00:28:07;11.90;;;5.10;;
52534;SDS011;38443;53.164;5.802;2023-05-20T00:32:58;14.52;;;6.15;;
52534;SDS011;38443;53.164;5.802;2023-05-20T00:35:23;12.23;;;5.18;;
52534;SDS011;38443;53.164;5.802;2023-05-20T00:37:48;9.70;;;5.07;;
52534;SDS011;38443;53.164;5.802;2023-05-20T00:40:14;12.35;;;5.00;;
52534;SDS011;38443;53.164;5.802;2023-05-20T00:42:40;10.90;;;5.63;;
52534;SDS011;38443;53.164;5.802;2023-05-20T00:47:31;9.50;;;4.97;;
52534;SDS011;38443;53.164;5.802;2023-05-20T00:49:58;20.15;;;5.43;;
52534;SDS011;38443;53.164;5.802;2023-05-20T00:52:24;15.77;;;5.28;;
52534;SDS011;38443;53.164;5.802;2023-05-20T00:54:51;14.40;;;4.93;;
52534;SDS011;38443;53.164;5.802;2023-05-20T00:59:43;9.32;;;5.28;;
52534;SDS011;38443;53.164;5.802;2023-05-20T01:04:33;12.55;;;5.70;;
52534;SDS011;38443;53.164;5.802;2023-05-20T01:06:59;14.10;;;5.43;;
52534;SDS011;38443;53.164;5.802;2023-05-20T01:09:28;17.20;;;5.63;;
52534;SDS011;38443;53.164;5.802;2023-05-20T01:14:37;16.77;;;5.78;;
52534;SDS011;38443;53.164;5.802;2023-05-20T01:17:15;11.25;;;5.05;;
52534;SDS011;38443;53.164;5.802;2023-05-20T01:19:44;10.90;;;5.28;;
52534;SDS011;38443;53.164;5.802;2023-05-20T01:22:12;12.90;;;5.10;;
52534;SDS011;38443;53.164;5.802;2023-05-20T01:24:42;9.48;;;5.38;;
52534;SDS011;38443;53.164;5.802;2023-05-20T01:27:09;12.82;;;5.45;;
52534;SDS011;38443;53.164;5.802;2023-05-20T01:29:38;13.75;;;6.28;;
52534;SDS011;38443;53.164;5.802;2023-05-20T01:32:06;10.85;;;5.60;;
52534;SDS011;38443;53.164;5.802;2023-05-20T01:34:35;11.73;;;5.72;;
52534;SDS011;38443;53.164;5.802;2023-05-20T01:37:03;10.95;;;5.80;;
52534;SDS011;38443;53.164;5.802;2023-05-20T01:39:30;16.80;;;6.32;;
52534;SDS011;38443;53.164;5.802;2023-05-20T01:42:01;23.90;;;6.68;;
52534;SDS011;38443;53.164;5.802;2023-05-20T01:44:27;14.43;;;6.05;;
52534;SDS011;38443;53.164;5.802;2023-05-20T01:49:18;15.40;;;5.83;;
52534;SDS011;38443;53.164;5.802;2023-05-20T01:51:44;11.63;;;6.32;;
52534;SDS011;38443;53.164;5.802;2023-05-20T01:56:34;19.07;;;6.50;;
52534;SDS011;38443;53.164;5.802;2023-05-20T02:01:25;9.90;;;5.47;;
52534;SDS011;38443;53.164;5.802;2023-05-20T02:06:15;16.98;;;6.80;;
52534;SDS011;38443;53.164;5.802;2023-05-20T02:08:40;17.05;;;6.35;;
52534;SDS011;38443;53.164;5.802;2023-05-20T02:13:31;10.40;;;5.17;;
52534;SDS011;38443;53.164;5.802;2023-05-20T02:18:21;12.10;;;5.97;;
52534;SDS011;38443;53.164;5.802;2023-05-20T02:23:12;9.90;;;5.40;;
52534;SDS011;38443;53.164;5.802;2023-05-20T02:28:03;10.57;;;6.13;;
52534;SDS011;38443;53.164;5.802;2023-05-20T02:30:34;13.57;;;5.63;;
52534;SDS011;38443;53.164;5.802;2023-05-20T02:33:02;12.00;;;6.13;;
52534;SDS011;38443;53.164;5.802;2023-05-20T02:37:53;17.38;;;6.28;;
52534;SDS011;38443;53.164;5.802;2023-05-20T02:40:18;15.05;;;6.57;;
52534;SDS011;38443;53.164;5.802;2023-05-20T02:42:44;11.45;;;5.72;;
52534;SDS011;38443;53.164;5.802;2023-05-20T02:45:10;11.35;;;6.07;;
52534;SDS011;38443;53.164;5.802;2023-05-20T02:50:01;11.33;;;6.47;;
52534;SDS011;38443;53.164;5.802;2023-05-20T02:54:52;11.82;;;5.82;;
52534;SDS011;38443;53.164;5.802;2023-05-20T02:59:42;11.97;;;5.93;;
52534;SDS011;38443;53.164;5.802;2023-05-20T03:04:33;14.52;;;6.25;;
52534;SDS011;38443;53.164;5.802;2023-05-20T03:07:04;15.05;;;6.55;;
52534;SDS011;38443;53.164;5.802;2023-05-20T03:09:31;12.05;;;5.93;;
52534;SDS011;38443;53.164;5.802;2023-05-20T03:14:22;15.37;;;5.70;;
52534;SDS011;38443;53.164;5.802;2023-05-20T03:19:12;11.70;;;5.47;;
52534;SDS011;38443;53.164;5.802;2023-05-20T03:24:03;16.90;;;5.53;;
52534;SDS011;38443;53.164;5.802;2023-05-20T03:28:54;11.10;;;5.43;;
52534;SDS011;38443;53.164;5.802;2023-05-20T03:33:45;10.83;;;5.17;;
52534;SDS011;38443;53.164;5.802;2023-05-20T03:38:35;9.60;;;5.07;;
52534;SDS011;38443;53.164;5.802;2023-05-20T03:41:01;11.40;;;5.53;;
52534;SDS011;38443;53.164;5.802;2023-05-20T03:43:26;8.07;;;4.95;;
52534;SDS011;38443;53.164;5.802;2023-05-20T03:45:52;11.93;;;5.30;;
52534;SDS011;38443;53.164;5.802;2023-05-20T03:50:44;7.60;;;4.57;;
52534;SDS011;38443;53.164;5.802;2023-05-20T03:55:35;9.88;;;4.78;;
52534;SDS011;38443;53.164;5.802;2023-05-20T04:00:26;7.30;;;4.72;;
52534;SDS011;38443;53.164;5.802;2023-05-20T04:02:51;7.90;;;4.30;;
52534;SDS011;38443;53.164;5.802;2023-05-20T04:07:42;8.07;;;4.45;;
52534;SDS011;38443;53.164;5.802;2023-05-20T04:10:08;10.23;;;4.28;;
52534;SDS011;38443;53.164;5.802;2023-05-20T04:12:33;6.47;;;4.10;;
52534;SDS011;38443;53.164;5.802;2023-05-20T04:15:01;5.88;;;3.83;;
52534;SDS011;38443;53.164;5.802;2023-05-20T04:19:54;6.43;;;3.97;;
52534;SDS011;38443;53.164;5.802;2023-05-20T04:22:20;7.07;;;4.55;;
52534;SDS011;38443;53.164;5.802;2023-05-20T04:27:10;7.90;;;4.17;;
52534;SDS011;38443;53.164;5.802;2023-05-20T04:29:37;5.68;;;3.58;;
52534;SDS011;38443;53.164;5.802;2023-05-20T04:34:28;7.43;;;3.95;;
52534;SDS011;38443;53.164;5.802;2023-05-20T04:36:53;6.57;;;3.72;;
52534;SDS011;38443;53.164;5.802;2023-05-20T04:39:19;6.63;;;3.90;;
52534;SDS011;38443;53.164;5.802;2023-05-20T04:41:44;6.45;;;3.70;;
52534;SDS011;38443;53.164;5.802;2023-05-20T04:44:12;6.68;;;3.70;;
52534;SDS011;38443;53.164;5.802;2023-05-20T04:49:03;5.60;;;3.53;;
52534;SDS011;38443;53.164;5.802;2023-05-20T04:53:54;8.93;;;3.67;;
52534;SDS011;38443;53.164;5.802;2023-05-20T04:58:45;5.43;;;3.60;;
52534;SDS011;38443;53.164;5.802;2023-05-20T05:03:36;7.28;;;3.35;;
52534;SDS011;38443;53.164;5.802;2023-05-20T05:08:26;7.82;;;3.67;;
52534;SDS011;38443;53.164;5.802;2023-05-20T05:13:17;6.53;;;3.90;;
52534;SDS011;38443;53.164;5.802;2023-05-20T05:15:43;5.53;;;3.15;;
52534;SDS011;38443;53.164;5.802;2023-05-20T05:18:08;5.07;;;3.10;;
52534;SDS011;38443;53.164;5.802;2023-05-20T05:20:33;9.43;;;3.42;;
52534;SDS011;38443;53.164;5.802;2023-05-20T05:22:59;7.25;;;3.08;;
52534;SDS011;38443;53.164;5.802;2023-05-20T05:25:24;6.00;;;3.22;;
52534;SDS011;38443;53.164;5.802;2023-05-20T05:27:49;5.45;;;2.83;;
52534;SDS011;38443;53.164;5.802;2023-05-20T05:30:15;6.97;;;3.45;;
52534;SDS011;38443;53.164;5.802;2023-05-20T05:35:06;6.18;;;3.15;;
52534;SDS011;38443;53.164;5.802;2023-05-20T05:37:31;4.18;;;2.95;;
52534;SDS011;38443;53.164;5.802;2023-05-20T05:39:57;5.43;;;2.92;;
52534;SDS011;38443;53.164;5.802;2023-05-20T05:44:47;5.83;;;3.00;;
52534;SDS011;38443;53.164;5.802;2023-05-20T05:49:38;4.28;;;2.42;;
52534;SDS011;38443;53.164;5.802;2023-05-20T05:54:28;4.43;;;2.88;;
52534;SDS011;38443;53.164;5.802;2023-05-20T05:59:20;4.53;;;2.38;;
52534;SDS011;38443;53.164;5.802;2023-05-20T06:04:11;3.15;;;2.05;;
52534;SDS011;38443;53.164;5.802;2023-05-20T06:06:37;3.00;;;2.15;;
52534;SDS011;38443;53.164;5.802;2023-05-20T06:09:02;4.07;;;2.10;;
52534;SDS011;38443;53.164;5.802;2023-05-20T06:11:28;5.57;;;2.40;;
52534;SDS011;38443;53.164;5.802;2023-05-20T06:13:53;3.28;;;2.00;;
52534;SDS011;38443;53.164;5.802;2023-05-20T06:18:45;4.90;;;2.63;;
52534;SDS011;38443;53.164;5.802;2023-05-20T06:21:10;3.35;;;2.35;;
52534;SDS011;38443;53.164;5.802;2023-05-20T06:23:36;8.23;;;2.60;;
52534;SDS011;38443;53.164;5.802;2023-05-20T06:26:01;3.95;;;2.17;;
52534;SDS011;38443;53.164;5.802;2023-05-20T06:28:27;4.13;;;2.30;;
52534;SDS011;38443;53.164;5.802;2023-05-20T06:30:53;3.63;;;2.20;;
52534;SDS011;38443;53.164;5.802;2023-05-20T06:33:21;3.17;;;2.42;;
52534;SDS011;38443;53.164;5.802;2023-05-20T06:35:50;4.53;;;2.13;;
52534;SDS011;38443;53.164;5.802;2023-05-20T06:38:15;4.35;;;2.83;;
52534;SDS011;38443;53.164;5.802;2023-05-20T06:40:41;4.60;;;2.50;;
52534;SDS011;38443;53.164;5.802;2023-05-20T06:43:06;2.60;;;1.85;;
52534;SDS011;38443;53.164;5.802;2023-05-20T06:45:31;4.38;;;2.25;;
52534;SDS011;38443;53.164;5.802;2023-05-20T06:47:57;2.88;;;2.20;;
52534;SDS011;38443;53.164;5.802;2023-05-20T06:50:22;3.97;;;1.80;;
52534;SDS011;38443;53.164;5.802;2023-05-20T06:52:48;2.63;;;1.73;;
52534;SDS011;38443;53.164;5.802;2023-05-20T06:55:14;3.13;;;1.83;;
52534;SDS011;38443;53.164;5.802;2023-05-20T06:57:40;4.35;;;2.08;;
52534;SDS011;38443;53.164;5.802;2023-05-20T07:00:05;2.72;;;1.70;;
52534;SDS011;38443;53.164;5.802;2023-05-20T07:02:32;5.85;;;2.00;;
52534;SDS011;38443;53.164;5.802;2023-05-20T07:04:57;3.75;;;1.92;;
52534;SDS011;38443;53.164;5.802;2023-05-20T07:07:23;4.43;;;1.80;;
52534;SDS011;38443;53.164;5.802;2023-05-20T07:09:48;7.38;;;2.08;;
52534;SDS011;38443;53.164;5.802;2023-05-20T07:12:13;3.45;;;2.33;;
52534;SDS011;38443;53.164;5.802;2023-05-20T07:14:39;4.10;;;2.20;;
52534;SDS011;38443;53.164;5.802;2023-05-20T07:17:04;6.20;;;1.88;;
52534;SDS011;38443;53.164;5.802;2023-05-20T07:19:30;3.03;;;1.70;;
52534;SDS011;38443;53.164;5.802;2023-05-20T07:21:55;3.85;;;1.88;;
52534;SDS011;38443;53.164;5.802;2023-05-20T07:24:21;2.90;;;1.95;;
52534;SDS011;38443;53.164;5.802;2023-05-20T07:26:46;5.25;;;1.80;;
52534;SDS011;38443;53.164;5.802;2023-05-20T07:29:11;3.38;;;1.88;;
52534;SDS011;38443;53.164;5.802;2023-05-20T07:31:37;2.00;;;1.80;;
52534;SDS011;38443;53.164;5.802;2023-05-20T07:34:02;2.72;;;1.80;;
52534;SDS011;38443;53.164;5.802;2023-05-20T07:36:28;2.78;;;1.77;;
52534;SDS011;38443;53.164;5.802;2023-05-20T07:38:53;3.45;;;2.33;;
52534;SDS011;38443;53.164;5.802;2023-05-20T07:41:19;3.70;;;1.80;;
52534;SDS011;38443;53.164;5.802;2023-05-20T07:43:45;3.83;;;2.00;;
52534;SDS011;38443;53.164;5.802;2023-05-20T07:46:10;3.45;;;1.75;;
52534;SDS011;38443;53.164;5.802;2023-05-20T07:48:36;3.53;;;1.88;;
52534;SDS011;38443;53.164;5.802;2023-05-20T07:51:01;3.65;;;1.83;;
52534;SDS011;38443;53.164;5.802;2023-05-20T07:53:26;2.50;;;1.65;;
52534;SDS011;38443;53.164;5.802;2023-05-20T07:55:52;3.65;;;2.10;;
52534;SDS011;38443;53.164;5.802;2023-05-20T07:58:17;4.10;;;2.00;;
52534;SDS011;38443;53.164;5.802;2023-05-20T08:00:43;5.43;;;2.75;;
52534;SDS011;38443;53.164;5.802;2023-05-20T08:03:08;2.85;;;1.77;;
52534;SDS011;38443;53.164;5.802;2023-05-20T08:05:37;3.83;;;2.20;;
52534;SDS011;38443;53.164;5.802;2023-05-20T08:08:03;4.60;;;2.28;;
52534;SDS011;38443;53.164;5.802;2023-05-20T08:10:29;3.08;;;2.08;;
52534;SDS011;38443;53.164;5.802;2023-05-20T08:12:55;5.93;;;2.00;;
52534;SDS011;38443;53.164;5.802;2023-05-20T08:15:22;4.03;;;2.08;;
52534;SDS011;38443;53.164;5.802;2023-05-20T08:17:47;2.90;;;1.77;;
52534;SDS011;38443;53.164;5.802;2023-05-20T08:20:12;3.50;;;1.83;;
52534;SDS011;38443;53.164;5.802;2023-05-20T08:22:38;3.65;;;2.00;;
52534;SDS011;38443;53.164;5.802;2023-05-20T08:25:06;2.88;;;1.90;;
52534;SDS011;38443;53.164;5.802;2023-05-20T08:27:32;2.65;;;1.77;;
52534;SDS011;38443;53.164;5.802;2023-05-20T08:29:58;2.30;;;1.70;;
52534;SDS011;38443;53.164;5.802;2023-05-20T08:32:23;2.80;;;1.63;;
52534;SDS011;38443;53.164;5.802;2023-05-20T08:34:48;8.45;;;2.00;;
52534;SDS011;38443;53.164;5.802;2023-05-20T08:37:14;4.35;;;2.20;;
52534;SDS011;38443;53.164;5.802;2023-05-20T08:39:40;5.97;;;2.00;;
52534;SDS011;38443;53.164;5.802;2023-05-20T08:42:05;3.65;;;1.90;;
52534;SDS011;38443;53.164;5.802;2023-05-20T08:44:32;4.80;;;2.10;;
52534;SDS011;38443;53.164;5.802;2023-05-20T08:46:58;3.40;;;1.77;;
52534;SDS011;38443;53.164;5.802;2023-05-20T08:49:25;1.92;;;1.38;;
52534;SDS011;38443;53.164;5.802;2023-05-20T08:51:50;4.28;;;1.90;;
52534;SDS011;38443;53.164;5.802;2023-05-20T08:54:15;3.70;;;2.28;;
52534;SDS011;38443;53.164;5.802;2023-05-20T08:56:42;3.67;;;1.70;;
52534;SDS011;38443;53.164;5.802;2023-05-20T08:59:08;4.70;;;1.70;;
52534;SDS011;38443;53.164;5.802;2023-05-20T09:01:34;2.88;;;1.95;;
52534;SDS011;38443;53.164;5.802;2023-05-20T09:04:05;4.93;;;1.95;;
52534;SDS011;38443;53.164;5.802;2023-05-20T09:06:40;3.50;;;1.70;;
52534;SDS011;38443;53.164;5.802;2023-05-20T09:09:06;5.20;;;2.05;;
52534;SDS011;38443;53.164;5.802;2023-05-20T09:11:32;5.30;;;2.20;;
52534;SDS011;38443;53.164;5.802;2023-05-20T09:13:57;2.38;;;1.80;;
52534;SDS011;38443;53.164;5.802;2023-05-20T09:16:23;5.57;;;1.90;;
52534;SDS011;38443;53.164;5.802;2023-05-20T09:18:49;3.08;;;2.00;;
52534;SDS011;38443;53.164;5.802;2023-05-20T09:21:23;2.60;;;1.83;;
52534;SDS011;38443;53.164;5.802;2023-05-20T09:23:53;3.42;;;1.90;;
52534;SDS011;38443;53.164;5.802;2023-05-20T09:26:21;2.08;;;1.55;;
52534;SDS011;38443;53.164;5.802;2023-05-20T09:28:47;2.20;;;1.70;;
52534;SDS011;38443;53.164;5.802;2023-05-20T09:31:13;2.92;;;2.30;;
52534;SDS011;38443;53.164;5.802;2023-05-20T09:33:39;2.65;;;1.77;;
52534;SDS011;38443;53.164;5.802;2023-05-20T09:36:08;4.00;;;1.85;;
52534;SDS011;38443;53.164;5.802;2023-05-20T09:38:37;4.18;;;1.95;;
52534;SDS011;38443;53.164;5.802;2023-05-20T09:41:09;3.53;;;1.90;;
52534;SDS011;38443;53.164;5.802;2023-05-20T09:43:36;3.28;;;1.77;;
52534;SDS011;38443;53.164;5.802;2023-05-20T09:46:04;2.42;;;1.90;;
52534;SDS011;38443;53.164;5.802;2023-05-20T09:48:30;3.00;;;2.00;;
52534;SDS011;38443;53.164;5.802;2023-05-20T09:50:56;2.00;;;1.70;;
52534;SDS011;38443;53.164;5.802;2023-05-20T09:53:22;3.60;;;2.10;;
52534;SDS011;38443;53.164;5.802;2023-05-20T09:55:52;3.08;;;1.75;;
52534;SDS011;38443;53.164;5.802;2023-05-20T09:58:18;6.43;;;2.17;;
52534;SDS011;38443;53.164;5.802;2023-05-20T10:00:44;3.72;;;2.20;;
52534;SDS011;38443;53.164;5.802;2023-05-20T10:03:10;4.53;;;2.00;;
52534;SDS011;38443;53.164;5.802;2023-05-20T10:05:40;3.97;;;2.10;;
52534;SDS011;38443;53.164;5.802;2023-05-20T10:11:01;6.22;;;2.50;;
52534;SDS011;38443;53.164;5.802;2023-05-20T10:13:43;5.05;;;2.10;;
52534;SDS011;38443;53.164;5.802;2023-05-20T10:18:54;5.40;;;2.00;;
52534;SDS011;38443;53.164;5.802;2023-05-20T10:21:21;5.20;;;2.35;;
52534;SDS011;38443;53.164;5.802;2023-05-20T10:23:48;4.82;;;2.60;;
52534;SDS011;38443;53.164;5.802;2023-05-20T10:26:14;4.95;;;2.67;;
52534;SDS011;38443;53.164;5.802;2023-05-20T10:28:40;4.70;;;2.50;;
52534;SDS011;38443;53.164;5.802;2023-05-20T10:31:21;4.13;;;2.33;;
52534;SDS011;38443;53.164;5.802;2023-05-20T10:33:48;4.85;;;2.20;;
52534;SDS011;38443;53.164;5.802;2023-05-20T10:36:24;5.97;;;2.83;;
52534;SDS011;38443;53.164;5.802;2023-05-20T10:38:54;6.32;;;2.40;;
52534;SDS011;38443;53.164;5.802;2023-05-20T10:41:22;4.05;;;2.33;;
52534;SDS011;38443;53.164;5.802;2023-05-20T10:43:58;5.82;;;2.33;;
52534;SDS011;38443;53.164;5.802;2023-05-20T10:46:27;6.18;;;2.78;;
52534;SDS011;38443;53.164;5.802;2023-05-20T10:48:53;6.68;;;2.47;;
52534;SDS011;38443;53.164;5.802;2023-05-20T10:51:18;3.35;;;2.20;;
52534;SDS011;38443;53.164;5.802;2023-05-20T10:53:45;4.53;;;2.65;;
52534;SDS011;38443;53.164;5.802;2023-05-20T10:56:18;4.15;;;2.30;;
52534;SDS011;38443;53.164;5.802;2023-05-20T10:58:45;6.28;;;2.40;;
52534;SDS011;38443;53.164;5.802;2023-05-20T11:01:12;5.22;;;2.40;;
52534;SDS011;38443;53.164;5.802;2023-05-20T11:03:39;7.03;;;2.40;;
52534;SDS011;38443;53.164;5.802;2023-05-20T11:06:14;5.55;;;2.83;;
52534;SDS011;38443;53.164;5.802;2023-05-20T11:08:41;5.35;;;2.70;;
52534;SDS011;38443;53.164;5.802;2023-05-20T11:11:06;7.00;;;2.92;;
52534;SDS011;38443;53.164;5.802;2023-05-20T11:13:32;6.78;;;2.75;;
52534;SDS011;38443;53.164;5.802;2023-05-20T11:15:59;3.78;;;2.65;;
52534;SDS011;38443;53.164;5.802;2023-05-20T11:18:28;5.43;;;2.97;;
52534;SDS011;38443;53.164;5.802;2023-05-20T11:20:59;5.25;;;2.72;;
52534;SDS011;38443;53.164;5.802;2023-05-20T11:23:26;3.88;;;2.40;;
52534;SDS011;38443;53.164;5.802;2023-05-20T11:25:55;4.35;;;2.60;;
52534;SDS011;38443;53.164;5.802;2023-05-20T11:28:24;4.28;;;2.38;;
52534;SDS011;38443;53.164;5.802;2023-05-20T11:30:50;6.35;;;2.60;;
52534;SDS011;38443;53.164;5.802;2023-05-20T11:33:17;5.78;;;2.65;;
52534;SDS011;38443;53.164;5.802;2023-05-20T11:35:43;8.55;;;3.03;;
52534;SDS011;38443;53.164;5.802;2023-05-20T11:38:13;4.80;;;2.50;;
52534;SDS011;38443;53.164;5.802;2023-05-20T11:40:43;7.22;;;3.00;;
52534;SDS011;38443;53.164;5.802;2023-05-20T11:43:13;7.65;;;2.78;;
52534;SDS011;38443;53.164;5.802;2023-05-20T11:45:40;6.75;;;2.97;;
52534;SDS011;38443;53.164;5.802;2023-05-20T11:48:09;4.45;;;2.72;;
52534;SDS011;38443;53.164;5.802;2023-05-20T11:50:37;6.72;;;3.10;;
52534;SDS011;38443;53.164;5.802;2023-05-20T11:53:05;7.60;;;2.65;;
52534;SDS011;38443;53.164;5.802;2023-05-20T11:55:32;4.38;;;2.30;;
52534;SDS011;38443;53.164;5.802;2023-05-20T11:57:58;5.38;;;2.42;;
52534;SDS011;38443;53.164;5.802;2023-05-20T12:00:25;9.20;;;2.92;;
52534;SDS011;38443;53.164;5.802;2023-05-20T12:02:50;4.78;;;2.45;;
52534;SDS011;38443;53.164;5.802;2023-05-20T12:05:16;5.03;;;2.95;;
52534;SDS011;38443;53.164;5.802;2023-05-20T12:07:41;4.90;;;2.55;;
52534;SDS011;38443;53.164;5.802;2023-05-20T12:10:07;9.20;;;3.17;;
52534;SDS011;38443;53.164;5.802;2023-05-20T12:12:33;6.57;;;2.47;;
52534;SDS011;38443;53.164;5.802;2023-05-20T12:15:00;7.03;;;2.80;;
52534;SDS011;38443;53.164;5.802;2023-05-20T12:17:26;8.10;;;3.10;;
52534;SDS011;38443;53.164;5.802;2023-05-20T12:19:52;5.13;;;3.13;;
52534;SDS011;38443;53.164;5.802;2023-05-20T12:22:17;5.75;;;2.80;;
52534;SDS011;38443;53.164;5.802;2023-05-20T12:24:42;5.13;;;3.22;;
52534;SDS011;38443;53.164;5.802;2023-05-20T12:27:08;4.72;;;3.03;;
52534;SDS011;38443;53.164;5.802;2023-05-20T12:29:34;4.82;;;2.75;;
52534;SDS011;38443;53.164;5.802;2023-05-20T12:31:59;6.20;;;2.90;;
52534;SDS011;38443;53.164;5.802;2023-05-20T12:34:25;6.07;;;2.90;;
52534;SDS011;38443;53.164;5.802;2023-05-20T12:36:50;7.07;;;2.70;;
52534;SDS011;38443;53.164;5.802;2023-05-20T12:39:17;5.65;;;3.38;;
52534;SDS011;38443;53.164;5.802;2023-05-20T12:41:43;8.85;;;3.00;;
52534;SDS011;38443;53.164;5.802;2023-05-20T12:44:09;6.30;;;3.63;;
52534;SDS011;38443;53.164;5.802;2023-05-20T12:46:34;5.63;;;3.22;;
52534;SDS011;38443;53.164;5.802;2023-05-20T12:49:00;6.45;;;2.65;;
52534;SDS011;38443;53.164;5.802;2023-05-20T12:51:26;9.52;;;2.90;;
52534;SDS011;38443;53.164;5.802;2023-05-20T12:53:54;3.40;;;2.60;;
52534;SDS011;38443;53.164;5.802;2023-05-20T12:56:20;4.72;;;3.20;;
52534;SDS011;38443;53.164;5.802;2023-05-20T12:58:46;6.60;;;2.80;;
52534;SDS011;38443;53.164;5.802;2023-05-20T13:01:11;6.07;;;2.88;;
52534;SDS011;38443;53.164;5.802;2023-05-20T13:03:37;5.10;;;2.70;;
52534;SDS011;38443;53.164;5.802;2023-05-20T13:06:02;8.57;;;3.25;;
52534;SDS011;38443;53.164;5.802;2023-05-20T13:08:28;4.63;;;2.83;;
52534;SDS011;38443;53.164;5.802;2023-05-20T13:10:53;5.50;;;2.90;;
52534;SDS011;38443;53.164;5.802;2023-05-20T13:13:19;5.10;;;3.15;;
52534;SDS011;38443;53.164;5.802;2023-05-20T13:15:49;6.45;;;3.25;;
52534;SDS011;38443;53.164;5.802;2023-05-20T13:18:15;4.80;;;2.92;;
52534;SDS011;38443;53.164;5.802;2023-05-20T13:20:41;8.77;;;3.40;;
52534;SDS011;38443;53.164;5.802;2023-05-20T13:23:09;6.65;;;3.15;;
52534;SDS011;38443;53.164;5.802;2023-05-20T13:25:35;6.22;;;3.03;;
52534;SDS011;38443;53.164;5.802;2023-05-20T13:28:01;8.50;;;2.95;;
52534;SDS011;38443;53.164;5.802;2023-05-20T13:30:27;6.68;;;3.28;;
52534;SDS011;38443;53.164;5.802;2023-05-20T13:32:52;6.07;;;2.80;;
52534;SDS011;38443;53.164;5.802;2023-05-20T13:35:18;5.32;;;2.92;;
52534;SDS011;38443;53.164;5.802;2023-05-20T13:37:43;4.07;;;2.95;;
52534;SDS011;38443;53.164;5.802;2023-05-20T13:40:09;5.95;;;3.10;;
52534;SDS011;38443;53.164;5.802;2023-05-20T13:42:35;3.90;;;3.08;;
52534;SDS011;38443;53.164;5.802;2023-05-20T13:45:00;5.68;;;3.10;;
52534;SDS011;38443;53.164;5.802;2023-05-20T13:47:26;4.93;;;3.50;;
52534;SDS011;38443;53.164;5.802;2023-05-20T13:49:51;10.00;;;3.13;;
52534;SDS011;38443;53.164;5.802;2023-05-20T13:52:16;7.47;;;3.30;;
52534;SDS011;38443;53.164;5.802;2023-05-20T13:54:42;7.03;;;3.60;;
52534;SDS011;38443;53.164;5.802;2023-05-20T13:57:10;5.78;;;3.80;;
52534;SDS011;38443;53.164;5.802;2023-05-20T13:59:36;8.02;;;3.40;;
52534;SDS011;38443;53.164;5.802;2023-05-20T14:02:01;6.07;;;3.10;;
52534;SDS011;38443;53.164;5.802;2023-05-20T14:04:27;5.97;;;3.53;;
52534;SDS011;38443;53.164;5.802;2023-05-20T14:06:52;6.22;;;3.53;;
52534;SDS011;38443;53.164;5.802;2023-05-20T14:09:18;9.85;;;3.83;;
52534;SDS011;38443;53.164;5.802;2023-05-20T14:11:43;7.18;;;3.17;;
52534;SDS011;38443;53.164;5.802;2023-05-20T14:14:08;5.88;;;3.30;;
52534;SDS011;38443;53.164;5.802;2023-05-20T14:16:34;7.30;;;3.28;;
52534;SDS011;38443;53.164;5.802;2023-05-20T14:18:59;5.13;;;2.88;;
52534;SDS011;38443;53.164;5.802;2023-05-20T14:21:25;5.78;;;2.67;;
52534;SDS011;38443;53.164;5.802;2023-05-20T14:23:50;4.55;;;2.85;;
52534;SDS011;38443;53.164;5.802;2023-05-20T14:26:15;6.38;;;2.50;;
52534;SDS011;38443;53.164;5.802;2023-05-20T14:28:40;4.85;;;2.78;;
52534;SDS011;38443;53.164;5.802;2023-05-20T14:31:06;7.13;;;2.72;;
52534;SDS011;38443;53.164;5.802;2023-05-20T14:33:31;7.57;;;2.88;;
52534;SDS011;38443;53.164;5.802;2023-05-20T14:35:57;5.88;;;2.72;;
52534;SDS011;38443;53.164;5.802;2023-05-20T14:38:22;6.10;;;2.40;;
52534;SDS011;38443;53.164;5.802;2023-05-20T14:40:48;3.55;;;2.50;;
52534;SDS011;38443;53.164;5.802;2023-05-20T14:43:13;6.05;;;3.28;;
52534;SDS011;38443;53.164;5.802;2023-05-20T14:45:38;6.13;;;2.88;;
52534;SDS011;38443;53.164;5.802;2023-05-20T14:48:04;5.00;;;2.50;;
52534;SDS011;38443;53.164;5.802;2023-05-20T14:50:30;5.72;;;3.00;;
52534;SDS011;38443;53.164;5.802;2023-05-20T14:52:56;6.47;;;3.05;;
52534;SDS011;38443;53.164;5.802;2023-05-20T14:55:21;5.50;;;2.75;;
52534;SDS011;38443;53.164;5.802;2023-05-20T14:57:46;7.15;;;2.90;;
52534;SDS011;38443;53.164;5.802;2023-05-20T15:00:12;4.75;;;2.70;;
52534;SDS011;38443;53.164;5.802;2023-05-20T15:02:38;9.65;;;3.10;;
52534;SDS011;38443;53.164;5.802;2023-05-20T15:05:03;3.38;;;2.50;;
52534;SDS011;38443;53.164;5.802;2023-05-20T15:07:29;5.65;;;2.83;;
52534;SDS011;38443;53.164;5.802;2023-05-20T15:09:54;7.03;;;3.05;;
52534;SDS011;38443;53.164;5.802;2023-05-20T15:12:19;5.82;;;3.17;;
52534;SDS011;38443;53.164;5.802;2023-05-20T15:14:45;6.97;;;3.35;;
52534;SDS011;38443;53.164;5.802;2023-05-20T15:17:10;8.55;;;3.30;;
52534;SDS011;38443;53.164;5.802;2023-05-20T15:19:36;5.82;;;2.65;;
52534;SDS011;38443;53.164;5.802;2023-05-20T15:22:01;7.15;;;3.00;;
52534;SDS011;38443;53.164;5.802;2023-05-20T15:24:27;6.57;;;3.10;;
52534;SDS011;38443;53.164;5.802;2023-05-20T15:26:52;6.57;;;3.45;;
52534;SDS011;38443;53.164;5.802;2023-05-20T15:29:19;13.77;;;4.03;;
52534;SDS011;38443;53.164;5.802;2023-05-20T15:31:44;6.90;;;3.00;;
52534;SDS011;38443;53.164;5.802;2023-05-20T15:34:10;7.50;;;3.63;;
52534;SDS011;38443;53.164;5.802;2023-05-20T15:36:35;7.05;;;3.22;;
52534;SDS011;38443;53.164;5.802;2023-05-20T15:39:01;7.13;;;3.47;;
52534;SDS011;38443;53.164;5.802;2023-05-20T15:41:26;5.75;;;3.17;;
52534;SDS011;38443;53.164;5.802;2023-05-20T15:43:51;4.47;;;3.10;;
52534;SDS011;38443;53.164;5.802;2023-05-20T15:46:17;6.18;;;3.22;;
52534;SDS011;38443;53.164;5.802;2023-05-20T15:48:42;8.40;;;3.08;;
52534;SDS011;38443;53.164;5.802;2023-05-20T15:51:07;7.47;;;2.63;;
52534;SDS011;38443;53.164;5.802;2023-05-20T15:53:33;5.32;;;3.30;;
52534;SDS011;38443;53.164;5.802;2023-05-20T15:55:58;5.80;;;2.92;;
52534;SDS011;38443;53.164;5.802;2023-05-20T15:58:23;5.20;;;2.53;;
52534;SDS011;38443;53.164;5.802;2023-05-20T16:00:49;5.03;;;2.72;;
52534;SDS011;38443;53.164;5.802;2023-05-20T16:03:14;6.00;;;3.00;;
52534;SDS011;38443;53.164;5.802;2023-05-20T16:05:40;5.38;;;2.70;;
52534;SDS011;38443;53.164;5.802;2023-05-20T16:08:05;4.05;;;2.67;;
52534;SDS011;38443;53.164;5.802;2023-05-20T16:10:31;4.07;;;2.60;;
52534;SDS011;38443;53.164;5.802;2023-05-20T16:12:58;5.53;;;2.75;;
52534;SDS011;38443;53.164;5.802;2023-05-20T16:15:24;5.20;;;2.58;;
52534;SDS011;38443;53.164;5.802;2023-05-20T16:17:50;3.92;;;2.15;;
52534;SDS011;38443;53.164;5.802;2023-05-20T16:20:15;4.03;;;3.15;;
52534;SDS011;38443;53.164;5.802;2023-05-20T16:22:41;4.82;;;2.42;;
52534;SDS011;38443;53.164;5.802;2023-05-20T16:25:06;3.67;;;2.42;;
52534;SDS011;38443;53.164;5.802;2023-05-20T16:27:32;3.63;;;2.38;;
52534;SDS011;38443;53.164;5.802;2023-05-20T16:29:57;4.15;;;2.30;;
52534;SDS011;38443;53.164;5.802;2023-05-20T16:32:22;3.92;;;2.40;;
52534;SDS011;38443;53.164;5.802;2023-05-20T16:34:48;4.30;;;2.30;;
52534;SDS011;38443;53.164;5.802;2023-05-20T16:37:14;8.30;;;3.45;;
52534;SDS011;38443;53.164;5.802;2023-05-20T16:39:39;5.43;;;2.42;;